sensor_id;sensor_type;location;lat;lon;timestamp;P1;durP1;ratioP1;P2;durP2;ratioP2
70592;SDS011;58294;42.988;20.338;2023-07-13T00:00:34;16.83;;;12.88;;
70592;SDS011;58294;42.988;20.338;2023-07-13T00:03:01;15.27;;;11.40;;
70592;SDS011;58294;42.988;20.338;2023-07-13T00:05:27;17.50;;;10.57;;
70592;SDS011;58294;42.988;20.338;2023-07-13T00:07:53;17.88;;;12.43;;
70592;SDS011;58294;42.988;20.338;2023-07-13T00:10:19;18.67;;;13.93;;
70592;SDS011;58294;42.988;20.338;2023-07-13T00:12:46;16.33;;;11.30;;
70592;SDS011;58294;42.988;20.338;2023-07-13T00:15:15;14.70;;;11.38;;
70592;SDS011;58294;42.988;20.338;2023-07-13T00:17:48;15.40;;;11.68;;
70592;SDS011;58294;42.988;20.338;2023-07-13T00:20:18;16.33;;;12.20;;
70592;SDS011;58294;42.988;20.338;2023-07-13T00:22:47;17.05;;;11.93;;
70592;SDS011;58294;42.988;20.338;2023-07-13T00:25:13;15.32;;;11.20;;
70592;SDS011;58294;42.988;20.338;2023-07-13T00:27:39;14.70;;;11.73;;
70592;SDS011;58294;42.988;20.338;2023-07-13T00:30:06;14.00;;;10.98;;
70592;SDS011;58294;42.988;20.338;2023-07-13T00:32:34;17.42;;;11.43;;
70592;SDS011;58294;42.988;20.338;2023-07-13T00:35:00;13.30;;;11.30;;
70592;SDS011;58294;42.988;20.338;2023-07-13T00:37:28;14.88;;;11.20;;
70592;SDS011;58294;42.988;20.338;2023-07-13T00:39:54;17.95;;;11.77;;
70592;SDS011;58294;42.988;20.338;2023-07-13T00:42:20;19.23;;;12.05;;
70592;SDS011;58294;42.988;20.338;2023-07-13T00:47:46;17.30;;;10.90;;
70592;SDS011;58294;42.988;20.338;2023-07-13T00:50:13;16.05;;;10.93;;
70592;SDS011;58294;42.988;20.338;2023-07-13T00:52:43;19.60;;;11.90;;
70592;SDS011;58294;42.988;20.338;2023-07-13T00:55:12;11.85;;;10.68;;
70592;SDS011;58294;42.988;20.338;2023-07-13T00:57:39;16.30;;;11.98;;
70592;SDS011;58294;42.988;20.338;2023-07-13T01:00:07;12.98;;;10.57;;
70592;SDS011;58294;42.988;20.338;2023-07-13T01:02:34;18.00;;;13.07;;
70592;SDS011;58294;42.988;20.338;2023-07-13T01:05:08;22.80;;;12.25;;
70592;SDS011;58294;42.988;20.338;2023-07-13T01:07:35;17.25;;;12.48;;
70592;SDS011;58294;42.988;20.338;2023-07-13T01:10:02;16.80;;;11.40;;
70592;SDS011;58294;42.988;20.338;2023-07-13T01:12:28;17.27;;;11.32;;
70592;SDS011;58294;42.988;20.338;2023-07-13T01:14:59;13.65;;;10.32;;
70592;SDS011;58294;42.988;20.338;2023-07-13T01:17:26;14.63;;;9.75;;
70592;SDS011;58294;42.988;20.338;2023-07-13T01:19:54;13.15;;;10.48;;
70592;SDS011;58294;42.988;20.338;2023-07-13T01:22:20;13.13;;;10.93;;
70592;SDS011;58294;42.988;20.338;2023-07-13T01:24:51;14.77;;;10.18;;
70592;SDS011;58294;42.988;20.338;2023-07-13T01:27:22;14.98;;;9.52;;
70592;SDS011;58294;42.988;20.338;2023-07-13T01:29:53;12.48;;;9.70;;
70592;SDS011;58294;42.988;20.338;2023-07-13T01:32:27;12.25;;;10.23;;
70592;SDS011;58294;42.988;20.338;2023-07-13T01:34:53;15.43;;;10.55;;
70592;SDS011;58294;42.988;20.338;2023-07-13T01:37:20;12.65;;;9.93;;
70592;SDS011;58294;42.988;20.338;2023-07-13T01:39:46;12.60;;;9.95;;
70592;SDS011;58294;42.988;20.338;2023-07-13T01:42:12;16.58;;;10.93;;
70592;SDS011;58294;42.988;20.338;2023-07-13T01:44:39;11.73;;;9.85;;
70592;SDS011;58294;42.988;20.338;2023-07-13T01:47:05;14.00;;;10.13;;
70592;SDS011;58294;42.988;20.338;2023-07-13T01:49:31;15.82;;;9.75;;
70592;SDS011;58294;42.988;20.338;2023-07-13T01:51:57;13.50;;;10.55;;
70592;SDS011;58294;42.988;20.338;2023-07-13T01:54:22;15.50;;;10.73;;
70592;SDS011;58294;42.988;20.338;2023-07-13T01:56:48;14.10;;;9.60;;
70592;SDS011;58294;42.988;20.338;2023-07-13T01:59:14;11.88;;;9.95;;
70592;SDS011;58294;42.988;20.338;2023-07-13T02:01:40;15.30;;;9.52;;
70592;SDS011;58294;42.988;20.338;2023-07-13T02:04:05;11.35;;;9.60;;
70592;SDS011;58294;42.988;20.338;2023-07-13T02:06:31;13.80;;;9.88;;
70592;SDS011;58294;42.988;20.338;2023-07-13T02:08:57;13.50;;;10.25;;
70592;SDS011;58294;42.988;20.338;2023-07-13T02:11:24;12.05;;;9.10;;
70592;SDS011;58294;42.988;20.338;2023-07-13T02:13:50;12.05;;;9.52;;
70592;SDS011;58294;42.988;20.338;2023-07-13T02:16:17;11.52;;;9.93;;
70592;SDS011;58294;42.988;20.338;2023-07-13T02:18:42;10.93;;;9.63;;
70592;SDS011;58294;42.988;20.338;2023-07-13T02:21:08;14.23;;;10.25;;
70592;SDS011;58294;42.988;20.338;2023-07-13T02:23:34;11.98;;;10.02;;
70592;SDS011;58294;42.988;20.338;2023-07-13T02:26:01;11.57;;;9.80;;
70592;SDS011;58294;42.988;20.338;2023-07-13T02:28:28;11.32;;;8.75;;
70592;SDS011;58294;42.988;20.338;2023-07-13T02:30:54;11.68;;;9.05;;
70592;SDS011;58294;42.988;20.338;2023-07-13T02:33:20;11.93;;;8.95;;
70592;SDS011;58294;42.988;20.338;2023-07-13T02:35:46;11.15;;;9.27;;
70592;SDS011;58294;42.988;20.338;2023-07-13T02:38:12;10.70;;;8.60;;
70592;SDS011;58294;42.988;20.338;2023-07-13T02:40:37;10.93;;;9.57;;
70592;SDS011;58294;42.988;20.338;2023-07-13T02:43:03;10.73;;;9.43;;
70592;SDS011;58294;42.988;20.338;2023-07-13T02:45:29;9.13;;;7.80;;
70592;SDS011;58294;42.988;20.338;2023-07-13T02:47:55;11.73;;;9.48;;
70592;SDS011;58294;42.988;20.338;2023-07-13T02:50:21;18.50;;;9.07;;
70592;SDS011;58294;42.988;20.338;2023-07-13T02:52:46;10.95;;;9.50;;
70592;SDS011;58294;42.988;20.338;2023-07-13T02:55:12;9.90;;;8.05;;
70592;SDS011;58294;42.988;20.338;2023-07-13T02:57:38;15.20;;;9.73;;
70592;SDS011;58294;42.988;20.338;2023-07-13T03:00:04;12.70;;;9.95;;
70592;SDS011;58294;42.988;20.338;2023-07-13T03:02:31;10.77;;;8.90;;
70592;SDS011;58294;42.988;20.338;2023-07-13T03:04:57;11.05;;;8.38;;
70592;SDS011;58294;42.988;20.338;2023-07-13T03:07:23;11.18;;;8.10;;
70592;SDS011;58294;42.988;20.338;2023-07-13T03:09:59;9.95;;;8.77;;
70592;SDS011;58294;42.988;20.338;2023-07-13T03:12:25;13.90;;;9.43;;
70592;SDS011;58294;42.988;20.338;2023-07-13T03:14:51;9.88;;;8.30;;
70592;SDS011;58294;42.988;20.338;2023-07-13T03:17:17;16.48;;;9.57;;
70592;SDS011;58294;42.988;20.338;2023-07-13T03:19:42;12.73;;;9.73;;
70592;SDS011;58294;42.988;20.338;2023-07-13T03:22:09;14.63;;;9.30;;
70592;SDS011;58294;42.988;20.338;2023-07-13T03:24:35;10.48;;;8.63;;
70592;SDS011;58294;42.988;20.338;2023-07-13T03:27:03;15.70;;;9.20;;
70592;SDS011;58294;42.988;20.338;2023-07-13T03:29:30;12.10;;;9.45;;
70592;SDS011;58294;42.988;20.338;2023-07-13T03:31:56;12.25;;;8.45;;
70592;SDS011;58294;42.988;20.338;2023-07-13T03:34:21;9.65;;;8.32;;
70592;SDS011;58294;42.988;20.338;2023-07-13T03:36:47;10.35;;;8.38;;
70592;SDS011;58294;42.988;20.338;2023-07-13T03:39:13;13.40;;;8.27;;
70592;SDS011;58294;42.988;20.338;2023-07-13T03:41:39;10.40;;;8.63;;
70592;SDS011;58294;42.988;20.338;2023-07-13T03:44:05;11.10;;;7.90;;
70592;SDS011;58294;42.988;20.338;2023-07-13T03:46:31;11.07;;;8.65;;
70592;SDS011;58294;42.988;20.338;2023-07-13T03:48:58;11.50;;;7.97;;
70592;SDS011;58294;42.988;20.338;2023-07-13T03:51:24;10.65;;;8.50;;
70592;SDS011;58294;42.988;20.338;2023-07-13T03:53:50;11.25;;;8.82;;
70592;SDS011;58294;42.988;20.338;2023-07-13T03:56:17;11.82;;;9.05;;
70592;SDS011;58294;42.988;20.338;2023-07-13T03:58:44;13.48;;;8.65;;
70592;SDS011;58294;42.988;20.338;2023-07-13T04:01:11;11.32;;;8.38;;
70592;SDS011;58294;42.988;20.338;2023-07-13T04:03:39;12.25;;;8.98;;
70592;SDS011;58294;42.988;20.338;2023-07-13T04:06:07;12.35;;;9.50;;
70592;SDS011;58294;42.988;20.338;2023-07-13T04:08:40;11.50;;;8.57;;
70592;SDS011;58294;42.988;20.338;2023-07-13T04:11:06;8.90;;;7.43;;
70592;SDS011;58294;42.988;20.338;2023-07-13T04:13:32;10.80;;;8.90;;
70592;SDS011;58294;42.988;20.338;2023-07-13T04:15:58;9.27;;;8.27;;
70592;SDS011;58294;42.988;20.338;2023-07-13T04:18:24;9.73;;;7.97;;
70592;SDS011;58294;42.988;20.338;2023-07-13T04:20:50;9.77;;;8.23;;
70592;SDS011;58294;42.988;20.338;2023-07-13T04:23:16;9.88;;;8.38;;
70592;SDS011;58294;42.988;20.338;2023-07-13T04:25:45;13.20;;;8.70;;
70592;SDS011;58294;42.988;20.338;2023-07-13T04:28:14;8.65;;;7.75;;
70592;SDS011;58294;42.988;20.338;2023-07-13T04:30:43;10.93;;;8.82;;
70592;SDS011;58294;42.988;20.338;2023-07-13T04:33:09;11.68;;;7.95;;
70592;SDS011;58294;42.988;20.338;2023-07-13T04:35:35;14.70;;;8.68;;
70592;SDS011;58294;42.988;20.338;2023-07-13T04:38:00;15.32;;;8.98;;
70592;SDS011;58294;42.988;20.338;2023-07-13T04:40:27;11.50;;;10.15;;
70592;SDS011;58294;42.988;20.338;2023-07-13T04:42:54;9.23;;;8.25;;
70592;SDS011;58294;42.988;20.338;2023-07-13T04:45:20;9.88;;;8.13;;
70592;SDS011;58294;42.988;20.338;2023-07-13T04:47:46;10.02;;;9.02;;
70592;SDS011;58294;42.988;20.338;2023-07-13T04:50:12;12.75;;;9.52;;
70592;SDS011;58294;42.988;20.338;2023-07-13T04:52:43;15.30;;;10.25;;
70592;SDS011;58294;42.988;20.338;2023-07-13T04:55:10;13.07;;;10.05;;
70592;SDS011;58294;42.988;20.338;2023-07-13T04:57:36;10.65;;;9.57;;
70592;SDS011;58294;42.988;20.338;2023-07-13T05:00:02;18.08;;;9.77;;
70592;SDS011;58294;42.988;20.338;2023-07-13T05:02:31;13.60;;;9.38;;
70592;SDS011;58294;42.988;20.338;2023-07-13T05:04:58;10.10;;;8.35;;
70592;SDS011;58294;42.988;20.338;2023-07-13T05:07:25;13.40;;;9.48;;
70592;SDS011;58294;42.988;20.338;2023-07-13T05:09:51;8.75;;;7.78;;
70592;SDS011;58294;42.988;20.338;2023-07-13T05:12:17;18.00;;;16.15;;
70592;SDS011;58294;42.988;20.338;2023-07-13T05:14:43;12.43;;;9.73;;
70592;SDS011;58294;42.988;20.338;2023-07-13T05:17:09;13.18;;;9.55;;
70592;SDS011;58294;42.988;20.338;2023-07-13T05:19:35;10.18;;;8.60;;
70592;SDS011;58294;42.988;20.338;2023-07-13T05:22:00;10.20;;;9.18;;
70592;SDS011;58294;42.988;20.338;2023-07-13T05:24:27;13.13;;;9.10;;
70592;SDS011;58294;42.988;20.338;2023-07-13T05:26:53;10.60;;;9.52;;
70592;SDS011;58294;42.988;20.338;2023-07-13T05:29:20;9.38;;;8.25;;
70592;SDS011;58294;42.988;20.338;2023-07-13T05:31:46;14.07;;;9.00;;
70592;SDS011;58294;42.988;20.338;2023-07-13T05:34:12;16.25;;;8.82;;
70592;SDS011;58294;42.988;20.338;2023-07-13T05:36:38;15.80;;;8.82;;
70592;SDS011;58294;42.988;20.338;2023-07-13T05:39:04;13.45;;;8.15;;
70592;SDS011;58294;42.988;20.338;2023-07-13T05:41:30;13.90;;;9.00;;
70592;SDS011;58294;42.988;20.338;2023-07-13T05:43:56;12.77;;;9.02;;
70592;SDS011;58294;42.988;20.338;2023-07-13T05:46:22;10.07;;;8.05;;
70592;SDS011;58294;42.988;20.338;2023-07-13T05:48:47;10.77;;;8.57;;
70592;SDS011;58294;42.988;20.338;2023-07-13T05:51:13;10.30;;;8.23;;
70592;SDS011;58294;42.988;20.338;2023-07-13T05:53:39;9.95;;;8.73;;
70592;SDS011;58294;42.988;20.338;2023-07-13T05:56:05;8.77;;;7.88;;
70592;SDS011;58294;42.988;20.338;2023-07-13T05:58:31;13.88;;;9.18;;
70592;SDS011;58294;42.988;20.338;2023-07-13T06:01:00;13.75;;;9.40;;
70592;SDS011;58294;42.988;20.338;2023-07-13T06:03:28;10.48;;;8.20;;
70592;SDS011;58294;42.988;20.338;2023-07-13T06:05:54;10.55;;;8.50;;
70592;SDS011;58294;42.988;20.338;2023-07-13T06:08:20;13.05;;;8.68;;
70592;SDS011;58294;42.988;20.338;2023-07-13T06:10:46;11.73;;;9.13;;
70592;SDS011;58294;42.988;20.338;2023-07-13T06:13:11;15.40;;;11.35;;
70592;SDS011;58294;42.988;20.338;2023-07-13T06:15:37;10.90;;;9.80;;
70592;SDS011;58294;42.988;20.338;2023-07-13T06:18:03;12.45;;;8.80;;
70592;SDS011;58294;42.988;20.338;2023-07-13T06:20:29;14.40;;;9.13;;
70592;SDS011;58294;42.988;20.338;2023-07-13T06:22:55;16.85;;;10.40;;
70592;SDS011;58294;42.988;20.338;2023-07-13T06:25:21;21.38;;;10.98;;
70592;SDS011;58294;42.988;20.338;2023-07-13T06:27:46;12.57;;;9.60;;
70592;SDS011;58294;42.988;20.338;2023-07-13T06:30:12;12.10;;;10.02;;
70592;SDS011;58294;42.988;20.338;2023-07-13T06:32:38;21.63;;;12.65;;
70592;SDS011;58294;42.988;20.338;2023-07-13T06:35:04;11.68;;;9.90;;
70592;SDS011;58294;42.988;20.338;2023-07-13T06:37:31;13.40;;;10.18;;
70592;SDS011;58294;42.988;20.338;2023-07-13T06:39:59;22.05;;;14.60;;
70592;SDS011;58294;42.988;20.338;2023-07-13T06:42:25;19.75;;;11.55;;
70592;SDS011;58294;42.988;20.338;2023-07-13T06:44:51;12.40;;;10.60;;
70592;SDS011;58294;42.988;20.338;2023-07-13T06:47:16;17.40;;;12.88;;
70592;SDS011;58294;42.988;20.338;2023-07-13T06:49:42;13.05;;;11.65;;
70592;SDS011;58294;42.988;20.338;2023-07-13T06:52:08;23.83;;;12.48;;
70592;SDS011;58294;42.988;20.338;2023-07-13T06:54:34;15.18;;;9.90;;
70592;SDS011;58294;42.988;20.338;2023-07-13T06:57:00;30.25;;;14.38;;
70592;SDS011;58294;42.988;20.338;2023-07-13T06:59:27;15.63;;;11.68;;
70592;SDS011;58294;42.988;20.338;2023-07-13T07:01:55;10.95;;;9.85;;
70592;SDS011;58294;42.988;20.338;2023-07-13T07:04:21;16.42;;;10.25;;
70592;SDS011;58294;42.988;20.338;2023-07-13T07:06:46;15.85;;;10.20;;
70592;SDS011;58294;42.988;20.338;2023-07-13T07:09:13;17.45;;;10.68;;
70592;SDS011;58294;42.988;20.338;2023-07-13T07:11:38;20.90;;;14.45;;
70592;SDS011;58294;42.988;20.338;2023-07-13T07:14:04;15.15;;;9.73;;
70592;SDS011;58294;42.988;20.338;2023-07-13T07:16:30;13.65;;;10.07;;
70592;SDS011;58294;42.988;20.338;2023-07-13T07:18:59;12.93;;;9.38;;
70592;SDS011;58294;42.988;20.338;2023-07-13T07:21:25;15.40;;;9.30;;
70592;SDS011;58294;42.988;20.338;2023-07-13T07:23:52;12.27;;;9.23;;
70592;SDS011;58294;42.988;20.338;2023-07-13T07:26:18;13.75;;;9.15;;
70592;SDS011;58294;42.988;20.338;2023-07-13T07:28:48;33.58;;;12.52;;
70592;SDS011;58294;42.988;20.338;2023-07-13T07:31:14;25.73;;;10.52;;
70592;SDS011;58294;42.988;20.338;2023-07-13T07:33:43;13.55;;;9.25;;
70592;SDS011;58294;42.988;20.338;2023-07-13T07:36:17;11.57;;;8.13;;
70592;SDS011;58294;42.988;20.338;2023-07-13T07:38:43;10.60;;;8.20;;
70592;SDS011;58294;42.988;20.338;2023-07-13T07:41:09;13.88;;;8.98;;
70592;SDS011;58294;42.988;20.338;2023-07-13T07:43:35;12.45;;;8.48;;
70592;SDS011;58294;42.988;20.338;2023-07-13T07:46:01;13.35;;;9.05;;
70592;SDS011;58294;42.988;20.338;2023-07-13T07:48:27;14.50;;;8.95;;
70592;SDS011;58294;42.988;20.338;2023-07-13T07:50:53;12.35;;;9.32;;
70592;SDS011;58294;42.988;20.338;2023-07-13T07:53:19;13.88;;;8.43;;
70592;SDS011;58294;42.988;20.338;2023-07-13T07:55:45;15.48;;;9.60;;
70592;SDS011;58294;42.988;20.338;2023-07-13T07:58:11;28.55;;;12.85;;
70592;SDS011;58294;42.988;20.338;2023-07-13T08:00:36;11.18;;;8.35;;
70592;SDS011;58294;42.988;20.338;2023-07-13T08:03:02;18.27;;;11.23;;
70592;SDS011;58294;42.988;20.338;2023-07-13T08:05:28;22.10;;;14.45;;
70592;SDS011;58294;42.988;20.338;2023-07-13T08:07:54;29.20;;;15.80;;
70592;SDS011;58294;42.988;20.338;2023-07-13T08:10:20;22.63;;;14.30;;
70592;SDS011;58294;42.988;20.338;2023-07-13T08:12:46;24.17;;;11.93;;
70592;SDS011;58294;42.988;20.338;2023-07-13T08:15:13;16.88;;;11.27;;
70592;SDS011;58294;42.988;20.338;2023-07-13T08:17:40;20.95;;;12.15;;
70592;SDS011;58294;42.988;20.338;2023-07-13T08:20:07;15.55;;;11.10;;
70592;SDS011;58294;42.988;20.338;2023-07-13T08:22:35;15.52;;;10.55;;
70592;SDS011;58294;42.988;20.338;2023-07-13T08:25:02;10.73;;;7.95;;
70592;SDS011;58294;42.988;20.338;2023-07-13T08:27:28;19.30;;;9.98;;
70592;SDS011;58294;42.988;20.338;2023-07-13T08:29:54;17.35;;;10.45;;
70592;SDS011;58294;42.988;20.338;2023-07-13T08:32:21;12.60;;;9.38;;
70592;SDS011;58294;42.988;20.338;2023-07-13T08:34:48;11.68;;;8.35;;
70592;SDS011;58294;42.988;20.338;2023-07-13T08:37:14;17.13;;;11.98;;
70592;SDS011;58294;42.988;20.338;2023-07-13T08:39:42;9.40;;;7.20;;
70592;SDS011;58294;42.988;20.338;2023-07-13T08:44:41;9.50;;;7.15;;
70592;SDS011;58294;42.988;20.338;2023-07-13T08:47:09;15.88;;;9.80;;
70592;SDS011;58294;42.988;20.338;2023-07-13T08:49:36;11.38;;;8.02;;
70592;SDS011;58294;42.988;20.338;2023-07-13T08:52:04;12.77;;;8.32;;
70592;SDS011;58294;42.988;20.338;2023-07-13T08:54:34;16.95;;;9.77;;
70592;SDS011;58294;42.988;20.338;2023-07-13T08:57:14;12.45;;;8.68;;
70592;SDS011;58294;42.988;20.338;2023-07-13T08:59:42;9.15;;;7.57;;
70592;SDS011;58294;42.988;20.338;2023-07-13T09:05:29;10.52;;;8.00;;
70592;SDS011;58294;42.988;20.338;2023-07-13T09:16:23;10.07;;;7.88;;
70592;SDS011;58294;42.988;20.338;2023-07-13T09:18:51;11.30;;;8.07;;
70592;SDS011;58294;42.988;20.338;2023-07-13T09:21:31;20.05;;;8.63;;
70592;SDS011;58294;42.988;20.338;2023-07-13T09:23:59;12.27;;;8.15;;
70592;SDS011;58294;42.988;20.338;2023-07-13T09:26:46;14.10;;;8.35;;
70592;SDS011;58294;42.988;20.338;2023-07-13T09:29:16;8.95;;;7.30;;
70592;SDS011;58294;42.988;20.338;2023-07-13T09:31:52;9.38;;;8.43;;
70592;SDS011;58294;42.988;20.338;2023-07-13T09:34:23;16.08;;;9.38;;
70592;SDS011;58294;42.988;20.338;2023-07-13T09:36:49;13.52;;;7.63;;
70592;SDS011;58294;42.988;20.338;2023-07-13T09:39:24;11.75;;;7.75;;
70592;SDS011;58294;42.988;20.338;2023-07-13T09:41:57;12.27;;;7.90;;
70592;SDS011;58294;42.988;20.338;2023-07-13T09:44:54;14.13;;;8.15;;
70592;SDS011;58294;42.988;20.338;2023-07-13T09:47:26;9.80;;;7.75;;
70592;SDS011;58294;42.988;20.338;2023-07-13T09:50:05;13.73;;;7.32;;
70592;SDS011;58294;42.988;20.338;2023-07-13T09:52:46;15.75;;;7.97;;
70592;SDS011;58294;42.988;20.338;2023-07-13T09:57:54;10.55;;;8.27;;
70592;SDS011;58294;42.988;20.338;2023-07-13T10:00:24;9.80;;;7.00;;
70592;SDS011;58294;42.988;20.338;2023-07-13T10:05:45;9.55;;;7.57;;
70592;SDS011;58294;42.988;20.338;2023-07-13T10:08:34;16.27;;;8.18;;
70592;SDS011;58294;42.988;20.338;2023-07-13T10:11:02;12.95;;;9.98;;
70592;SDS011;58294;42.988;20.338;2023-07-13T10:13:44;10.93;;;7.82;;
70592;SDS011;58294;42.988;20.338;2023-07-13T10:16:11;8.45;;;7.68;;
70592;SDS011;58294;42.988;20.338;2023-07-13T10:18:41;11.45;;;8.30;;
70592;SDS011;58294;42.988;20.338;2023-07-13T10:21:18;10.43;;;9.05;;
70592;SDS011;58294;42.988;20.338;2023-07-13T10:23:47;15.70;;;8.73;;
70592;SDS011;58294;42.988;20.338;2023-07-13T10:26:25;10.63;;;8.18;;
70592;SDS011;58294;42.988;20.338;2023-07-13T10:28:56;12.02;;;8.13;;
70592;SDS011;58294;42.988;20.338;2023-07-13T10:31:26;10.80;;;7.90;;
70592;SDS011;58294;42.988;20.338;2023-07-13T10:33:52;11.88;;;7.75;;
70592;SDS011;58294;42.988;20.338;2023-07-13T10:38:55;12.35;;;8.15;;
70592;SDS011;58294;42.988;20.338;2023-07-13T10:41:24;13.55;;;8.85;;
70592;SDS011;58294;42.988;20.338;2023-07-13T10:43:52;10.90;;;8.02;;
70592;SDS011;58294;42.988;20.338;2023-07-13T10:46:22;10.80;;;8.52;;
70592;SDS011;58294;42.988;20.338;2023-07-13T10:48:49;8.43;;;7.60;;
70592;SDS011;58294;42.988;20.338;2023-07-13T10:51:17;13.45;;;9.02;;
70592;SDS011;58294;42.988;20.338;2023-07-13T10:53:46;10.27;;;8.20;;
70592;SDS011;58294;42.988;20.338;2023-07-13T10:58:44;12.40;;;8.27;;
70592;SDS011;58294;42.988;20.338;2023-07-13T11:01:15;13.40;;;8.95;;
70592;SDS011;58294;42.988;20.338;2023-07-13T11:03:55;20.73;;;10.55;;
70592;SDS011;58294;42.988;20.338;2023-07-13T11:08:59;10.75;;;8.27;;
70592;SDS011;58294;42.988;20.338;2023-07-13T11:11:43;11.30;;;7.78;;
70592;SDS011;58294;42.988;20.338;2023-07-13T11:19:52;8.55;;;7.75;;
70592;SDS011;58294;42.988;20.338;2023-07-13T11:22:21;9.50;;;7.45;;
70592;SDS011;58294;42.988;20.338;2023-07-13T11:24:50;9.73;;;8.00;;
70592;SDS011;58294;42.988;20.338;2023-07-13T11:27:36;10.95;;;7.82;;
70592;SDS011;58294;42.988;20.338;2023-07-13T11:35:02;9.85;;;8.85;;
70592;SDS011;58294;42.988;20.338;2023-07-13T11:37:28;12.90;;;7.95;;
70592;SDS011;58294;42.988;20.338;2023-07-13T11:39:55;9.55;;;7.28;;
70592;SDS011;58294;42.988;20.338;2023-07-13T11:42:21;12.13;;;8.07;;
70592;SDS011;58294;42.988;20.338;2023-07-13T11:44:48;15.18;;;13.60;;
70592;SDS011;58294;42.988;20.338;2023-07-13T11:47:19;15.05;;;13.55;;
70592;SDS011;58294;42.988;20.338;2023-07-13T11:49:49;10.68;;;8.68;;
70592;SDS011;58294;42.988;20.338;2023-07-13T11:52:18;14.05;;;9.85;;
70592;SDS011;58294;42.988;20.338;2023-07-13T11:54:54;14.60;;;9.23;;
70592;SDS011;58294;42.988;20.338;2023-07-13T11:59:49;8.73;;;7.82;;
70592;SDS011;58294;42.988;20.338;2023-07-13T12:02:39;13.73;;;9.68;;
70592;SDS011;58294;42.988;20.338;2023-07-13T12:05:06;10.02;;;7.80;;
70592;SDS011;58294;42.988;20.338;2023-07-13T12:07:39;16.65;;;11.32;;
70592;SDS011;58294;42.988;20.338;2023-07-13T12:12:36;10.52;;;9.30;;
70592;SDS011;58294;42.988;20.338;2023-07-13T12:15:08;10.75;;;9.43;;
70592;SDS011;58294;42.988;20.338;2023-07-13T12:17:36;10.30;;;8.45;;
70592;SDS011;58294;42.988;20.338;2023-07-13T12:20:03;12.68;;;8.75;;
70592;SDS011;58294;42.988;20.338;2023-07-13T12:22:50;12.10;;;9.93;;
70592;SDS011;58294;42.988;20.338;2023-07-13T12:25:17;9.35;;;8.40;;
70592;SDS011;58294;42.988;20.338;2023-07-13T12:27:50;9.73;;;8.73;;
70592;SDS011;58294;42.988;20.338;2023-07-13T12:30:29;11.38;;;8.48;;
70592;SDS011;58294;42.988;20.338;2023-07-13T12:33:23;16.67;;;9.32;;
70592;SDS011;58294;42.988;20.338;2023-07-13T12:35:51;9.25;;;8.23;;
70592;SDS011;58294;42.988;20.338;2023-07-13T12:38:17;20.40;;;11.02;;
70592;SDS011;58294;42.988;20.338;2023-07-13T12:40:48;10.95;;;8.23;;
70592;SDS011;58294;42.988;20.338;2023-07-13T12:43:16;11.45;;;9.57;;
70592;SDS011;58294;42.988;20.338;2023-07-13T12:48:50;17.63;;;9.57;;
70592;SDS011;58294;42.988;20.338;2023-07-13T12:51:17;9.82;;;8.57;;
70592;SDS011;58294;42.988;20.338;2023-07-13T12:53:48;10.23;;;9.23;;
70592;SDS011;58294;42.988;20.338;2023-07-13T12:56:22;10.27;;;9.02;;
70592;SDS011;58294;42.988;20.338;2023-07-13T12:58:54;11.15;;;8.77;;
70592;SDS011;58294;42.988;20.338;2023-07-13T13:01:32;9.63;;;8.55;;
70592;SDS011;58294;42.988;20.338;2023-07-13T13:04:02;9.13;;;8.23;;
70592;SDS011;58294;42.988;20.338;2023-07-13T13:06:34;11.95;;;8.82;;
70592;SDS011;58294;42.988;20.338;2023-07-13T13:09:03;9.52;;;8.07;;
70592;SDS011;58294;42.988;20.338;2023-07-13T13:11:37;11.75;;;8.38;;
70592;SDS011;58294;42.988;20.338;2023-07-13T13:14:02;14.68;;;8.57;;
70592;SDS011;58294;42.988;20.338;2023-07-13T13:16:30;13.05;;;8.75;;
70592;SDS011;58294;42.988;20.338;2023-07-13T13:19:20;14.68;;;8.70;;
70592;SDS011;58294;42.988;20.338;2023-07-13T13:21:47;12.07;;;8.30;;
70592;SDS011;58294;42.988;20.338;2023-07-13T13:24:19;14.25;;;8.50;;
70592;SDS011;58294;42.988;20.338;2023-07-13T13:26:46;11.02;;;8.57;;
70592;SDS011;58294;42.988;20.338;2023-07-13T13:29:17;11.57;;;8.48;;
70592;SDS011;58294;42.988;20.338;2023-07-13T13:31:44;12.95;;;9.20;;
70592;SDS011;58294;42.988;20.338;2023-07-13T13:34:11;14.35;;;8.27;;
70592;SDS011;58294;42.988;20.338;2023-07-13T13:36:37;12.80;;;8.80;;
70592;SDS011;58294;42.988;20.338;2023-07-13T13:39:05;12.10;;;9.50;;
70592;SDS011;58294;42.988;20.338;2023-07-13T13:41:31;13.85;;;9.07;;
70592;SDS011;58294;42.988;20.338;2023-07-13T13:43:57;12.10;;;9.02;;
70592;SDS011;58294;42.988;20.338;2023-07-13T13:46:23;12.82;;;9.23;;
70592;SDS011;58294;42.988;20.338;2023-07-13T13:48:50;18.13;;;9.40;;
70592;SDS011;58294;42.988;20.338;2023-07-13T13:51:20;15.30;;;10.80;;
70592;SDS011;58294;42.988;20.338;2023-07-13T13:53:48;12.55;;;10.07;;
70592;SDS011;58294;42.988;20.338;2023-07-13T13:56:15;14.43;;;9.52;;
70592;SDS011;58294;42.988;20.338;2023-07-13T13:58:41;14.77;;;10.35;;
70592;SDS011;58294;42.988;20.338;2023-07-13T14:01:11;14.80;;;9.98;;
70592;SDS011;58294;42.988;20.338;2023-07-13T14:03:49;13.85;;;10.80;;
70592;SDS011;58294;42.988;20.338;2023-07-13T14:06:16;14.68;;;10.88;;
70592;SDS011;58294;42.988;20.338;2023-07-13T14:08:42;14.63;;;10.57;;
70592;SDS011;58294;42.988;20.338;2023-07-13T14:11:18;14.70;;;10.60;;
70592;SDS011;58294;42.988;20.338;2023-07-13T14:13:49;14.10;;;10.70;;
70592;SDS011;58294;42.988;20.338;2023-07-13T14:16:16;12.90;;;10.02;;
70592;SDS011;58294;42.988;20.338;2023-07-13T14:18:44;14.48;;;10.65;;
70592;SDS011;58294;42.988;20.338;2023-07-13T14:21:14;14.77;;;10.82;;
70592;SDS011;58294;42.988;20.338;2023-07-13T14:23:45;13.68;;;10.55;;
70592;SDS011;58294;42.988;20.338;2023-07-13T14:26:22;14.32;;;11.60;;
70592;SDS011;58294;42.988;20.338;2023-07-13T14:28:50;17.83;;;12.60;;
70592;SDS011;58294;42.988;20.338;2023-07-13T14:31:18;14.60;;;11.23;;
70592;SDS011;58294;42.988;20.338;2023-07-13T14:33:44;15.48;;;12.60;;
70592;SDS011;58294;42.988;20.338;2023-07-13T14:36:28;19.13;;;12.90;;
70592;SDS011;58294;42.988;20.338;2023-07-13T14:39:19;15.90;;;11.50;;
70592;SDS011;58294;42.988;20.338;2023-07-13T14:41:49;15.82;;;11.45;;
70592;SDS011;58294;42.988;20.338;2023-07-13T14:44:37;19.90;;;12.40;;
70592;SDS011;58294;42.988;20.338;2023-07-13T14:47:04;17.02;;;11.63;;
70592;SDS011;58294;42.988;20.338;2023-07-13T14:49:39;18.10;;;11.27;;
70592;SDS011;58294;42.988;20.338;2023-07-13T14:52:14;15.57;;;12.07;;
70592;SDS011;58294;42.988;20.338;2023-07-13T14:54:42;18.90;;;11.43;;
70592;SDS011;58294;42.988;20.338;2023-07-13T14:57:12;18.35;;;11.60;;
70592;SDS011;58294;42.988;20.338;2023-07-13T14:59:40;13.25;;;11.15;;
70592;SDS011;58294;42.988;20.338;2023-07-13T15:02:27;20.02;;;12.35;;
70592;SDS011;58294;42.988;20.338;2023-07-13T15:04:59;18.23;;;12.35;;
70592;SDS011;58294;42.988;20.338;2023-07-13T15:07:24;16.23;;;12.63;;
70592;SDS011;58294;42.988;20.338;2023-07-13T15:09:50;21.10;;;12.77;;
70592;SDS011;58294;42.988;20.338;2023-07-13T15:12:17;16.48;;;12.48;;
70592;SDS011;58294;42.988;20.338;2023-07-13T15:14:43;14.60;;;10.88;;